Time;durP1;ratioP1;P1;durP2;ratioP2;P2;SDS_P1;SDS_P2;PMS_P1;PMS_P2;Temp;Humidity;BMP_temperature;BMP_pressure;BME280_temperature;BME280_humidity;BME280_pressure;Samples;Min_cycle;Max_cycle;Signal;HPM_P1;HPM_P2
2022/03/22 00:01:00;;;;;;;34.05;21.35;;;2.60;43.10;;;;;;5114096;28;20038;-20
2022/03/22 00:03:28;;;;;;;34.50;20.65;;;2.50;43.70;;;;;;5112525;28;20024;-20
2022/03/22 00:05:55;;;;;;;30.92;17.73;;;2.50;43.70;;;;;;5113789;28;20066;-20
2022/03/22 00:08:22;;;;;;;37.15;22.77;;;2.50;44.10;;;;;;5113865;28;20023;-21
2022/03/22 00:10:48;;;;;;;41.05;24.05;;;2.50;43.30;;;;;;5114245;28;20036;-20
2022/03/22 00:13:15;;;;;;;33.83;20.00;;;2.50;44.30;;;;;;5113919;28;20057;-20
2022/03/22 00:15:42;;;;;;;38.63;20.55;;;2.50;45.50;;;;;;5113517;28;20488;-20
2022/03/22 00:18:08;;;;;;;37.15;17.90;;;2.50;44.40;;;;;;5113407;28;20071;-20
2022/03/22 00:20:34;;;;;;;33.58;20.58;;;2.50;44.00;;;;;;5113204;28;20103;-20
2022/03/22 00:23:01;;;;;;;30.17;17.52;;;2.50;43.90;;;;;;5113489;28;20024;-20
2022/03/22 00:25:27;;;;;;;21.10;13.15;;;2.50;44.20;;;;;;5113578;28;20035;-20
2022/03/22 00:27:57;;;;;;;31.70;19.15;;;2.50;44.50;;;;;;5095441;28;20024;-20
2022/03/22 00:30:28;;;;;;;27.52;17.20;;;2.50;44.70;;;;;;5113579;28;20047;-20
2022/03/22 00:32:57;;;;;;;33.10;19.23;;;2.40;43.80;;;;;;5114161;28;20449;-20
2022/03/22 00:35:26;;;;;;;24.33;14.70;;;2.50;44.60;;;;;;5113768;28;20029;-20
2022/03/22 00:37:53;;;;;;;28.35;16.38;;;2.40;44.70;;;;;;5113466;28;20491;-20
2022/03/22 00:40:21;;;;;;;26.95;13.77;;;2.40;44.30;;;;;;5114085;28;20027;-21
2022/03/22 00:42:51;;;;;;;30.08;18.10;;;2.40;43.60;;;;;;5113642;28;20032;-20
2022/03/22 00:45:18;;;;;;;16.48;10.25;;;2.40;44.40;;;;;;5113595;28;20061;-20
2022/03/22 00:47:45;;;;;;;26.02;15.25;;;2.40;43.40;;;;;;5113949;28;20027;-20
2022/03/22 00:50:16;;;;;;;25.95;15.20;;;2.40;42.80;;;;;;5113531;28;20024;-20
2022/03/22 00:52:43;;;;;;;21.17;12.68;;;2.40;43.50;;;;;;5113620;28;20032;-21
2022/03/22 00:55:14;;;;;;;26.88;15.65;;;2.40;43.50;;;;;;5113661;28;20023;-20
2022/03/22 00:57:42;;;;;;;16.90;9.35;;;2.30;44.20;;;;;;5113941;28;20099;-20
2022/03/22 01:00:11;;;;;;;19.23;11.00;;;2.30;43.50;;;;;;5111907;28;20487;-21
2022/03/22 01:02:49;;;;;;;20.92;11.75;;;2.30;43.40;;;;;;5113208;28;20024;-21
2022/03/22 01:05:19;;;;;;;21.30;12.32;;;2.30;43.00;;;;;;5113846;28;20046;-20
2022/03/22 01:07:51;;;;;;;22.48;10.52;;;2.20;42.80;;;;;;5113466;28;20046;-20
2022/03/22 01:10:20;;;;;;;13.60;7.07;;;2.20;42.80;;;;;;5113105;28;20035;-21
2022/03/22 01:12:47;;;;;;;12.68;7.13;;;2.20;42.80;;;;;;5113113;28;20498;-20
2022/03/22 01:15:20;;;;;;;11.90;7.60;;;2.20;42.40;;;;;;5112995;28;20036;-20
2022/03/22 01:17:48;;;;;;;16.15;8.45;;;2.20;42.00;;;;;;5113098;28;20071;-20
2022/03/22 01:20:16;;;;;;;16.08;10.02;;;2.20;42.80;;;;;;5113141;28;20055;-21
2022/03/22 01:22:45;;;;;;;20.42;10.95;;;2.20;43.60;;;;;;5112975;28;20034;-21
2022/03/22 01:25:21;;;;;;;22.15;12.88;;;2.20;43.00;;;;;;5113421;28;20024;-20
2022/03/22 01:27:48;;;;;;;21.63;12.07;;;2.20;44.50;;;;;;5113341;28;20074;-20
2022/03/22 01:30:19;;;;;;;22.75;12.40;;;2.20;44.00;;;;;;5113493;28;20016;-21
2022/03/22 01:32:46;;;;;;;19.60;10.52;;;2.20;43.90;;;;;;5115847;28;20058;-20
2022/03/22 01:35:12;;;;;;;18.48;10.52;;;2.20;44.40;;;;;;5116680;28;20023;-20
2022/03/22 01:37:39;;;;;;;13.38;8.23;;;2.20;44.20;;;;;;5116598;28;20035;-20
2022/03/22 01:40:07;;;;;;;13.43;7.13;;;2.20;43.60;;;;;;5116639;27;20136;-20
2022/03/22 01:42:35;;;;;;;16.15;8.63;;;2.20;43.30;;;;;;5116358;28;20066;-21
2022/03/22 01:45:02;;;;;;;13.15;7.28;;;2.20;42.70;;;;;;5116925;28;20503;-20
2022/03/22 01:47:29;;;;;;;11.73;5.55;;;2.20;43.40;;;;;;5116313;28;20030;-20
2022/03/22 01:49:56;;;;;;;13.30;6.88;;;2.20;42.90;;;;;;5116524;28;20016;-20
2022/03/22 01:52:24;;;;;;;15.30;5.95;;;2.30;42.30;;;;;;5116064;28;20072;-20
2022/03/22 01:54:52;;;;;;;14.20;7.60;;;2.30;42.40;;;;;;5116281;28;20110;-20
2022/03/22 01:57:19;;;;;;;13.38;7.22;;;2.40;42.00;;;;;;5116025;28;20027;-21
2022/03/22 01:59:47;;;;;;;12.60;6.03;;;2.40;42.20;;;;;;5116562;28;20031;-20
2022/03/22 02:07:45;;;;;;;11.20;6.38;;;2.60;42.10;;;;;;5116396;28;20043;-20
2022/03/22 02:10:13;;;;;;;13.70;7.35;;;2.60;42.00;;;;;;5116033;28;20487;-20
2022/03/22 02:12:41;;;;;;;13.10;6.72;;;2.70;42.40;;;;;;5116706;28;20031;-20
2022/03/22 02:15:07;;;;;;;15.13;7.75;;;2.80;42.60;;;;;;5116159;28;20106;-20
2022/03/22 02:17:34;;;;;;;11.27;6.13;;;2.80;42.40;;;;;;5115679;28;20066;-20
2022/03/22 02:20:01;;;;;;;14.90;7.93;;;2.90;41.40;;;;;;5115712;28;20024;-20
2022/03/22 02:22:49;;;;;;;11.50;6.43;;;2.90;41.70;;;;;;5115489;28;20020;-20
2022/03/22 02:25:15;;;;;;;11.77;6.47;;;2.90;41.60;;;;;;5116126;28;20131;-20
2022/03/22 02:27:46;;;;;;;10.02;5.32;;;2.90;41.90;;;;;;5115886;28;20028;-20
2022/03/22 02:30:14;;;;;;;12.00;6.65;;;2.90;41.50;;;;;;5116121;28;20391;-20
2022/03/22 02:32:47;;;;;;;15.40;8.80;;;3.00;41.60;;;;;;5115873;28;20047;-21
2022/03/22 02:35:13;;;;;;;13.07;7.65;;;3.00;42.40;;;;;;5115904;28;20023;-20
2022/03/22 02:37:39;;;;;;;15.00;7.90;;;3.00;42.70;;;;;;5115375;28;20073;-20
2022/03/22 02:40:09;;;;;;;14.82;8.75;;;2.90;42.50;;;;;;5115393;28;20122;-20
2022/03/22 02:42:35;;;;;;;19.15;9.05;;;2.90;42.40;;;;;;5115217;28;20081;-20
2022/03/22 02:45:01;;;;;;;19.48;11.27;;;2.90;42.50;;;;;;5114356;28;20419;-20
2022/03/22 02:47:27;;;;;;;16.10;9.50;;;2.90;42.60;;;;;;5115138;28;20050;-20
2022/03/22 02:49:53;;;;;;;15.02;8.73;;;2.90;42.50;;;;;;5115174;28;20061;-20
2022/03/22 02:52:19;;;;;;;15.98;9.35;;;2.90;42.60;;;;;;5115012;28;20028;-21
2022/03/22 02:54:45;;;;;;;13.73;7.53;;;2.90;42.90;;;;;;5115553;28;20471;-21
2022/03/22 02:57:11;;;;;;;11.40;6.95;;;2.80;42.70;;;;;;5115475;28;20032;-20
2022/03/22 02:59:37;;;;;;;16.38;9.90;;;2.80;42.50;;;;;;5115313;28;20357;-20
2022/03/22 03:02:04;;;;;;;9.30;5.35;;;2.80;42.50;;;;;;5113927;28;20036;-20
2022/03/22 03:04:30;;;;;;;13.60;7.43;;;2.80;42.30;;;;;;5114667;28;20514;-21
2022/03/22 03:06:56;;;;;;;10.90;6.53;;;2.70;41.90;;;;;;5115312;28;20051;-20
2022/03/22 03:09:22;;;;;;;18.95;9.77;;;2.70;42.50;;;;;;5115010;28;20472;-20
2022/03/22 03:11:48;;;;;;;8.77;4.63;;;2.60;42.80;;;;;;5113525;28;20039;-20
2022/03/22 03:16:59;;;;;;;13.80;7.57;;;2.60;42.80;;;;;;5114650;28;20583;-20
2022/03/22 03:19:25;;;;;;;12.00;6.90;;;2.50;42.50;;;;;;5115473;28;20027;-20
2022/03/22 03:21:51;;;;;;;11.73;6.75;;;2.50;42.60;;;;;;5114801;28;20110;-20
2022/03/22 03:24:18;;;;;;;20.48;10.40;;;2.50;42.90;;;;;;5114407;28;20115;-20
2022/03/22 03:26:43;;;;;;;10.23;4.93;;;2.40;42.50;;;;;;5115120;28;20076;-20
2022/03/22 03:29:09;;;;;;;8.88;4.95;;;2.40;42.20;;;;;;5114426;28;20039;-20
2022/03/22 03:31:35;;;;;;;9.85;5.32;;;2.40;42.10;;;;;;5114629;28;20027;-20
2022/03/22 03:34:01;;;;;;;14.13;6.18;;;2.40;41.70;;;;;;5114655;28;20024;-20
2022/03/22 03:36:28;;;;;;;13.68;7.32;;;2.40;41.80;;;;;;5114100;28;20432;-21
2022/03/22 03:38:54;;;;;;;9.70;6.20;;;2.40;42.30;;;;;;5114241;28;20023;-20
2022/03/22 03:47:03;;;;;;;9.43;4.10;;;2.40;42.40;;;;;;5114625;28;20114;-20
2022/03/22 03:47:07;;;;;;;12.38;6.13;;;2.40;42.40;;;;;;5114073;28;20463;-21
2022/03/22 03:49:35;;;;;;;13.93;8.15;;;2.30;42.40;;;;;;5114122;28;20039;-20
2022/03/22 03:52:02;;;;;;;8.98;4.47;;;2.30;42.60;;;;;;5114329;28;20028;-20
2022/03/22 03:54:29;;;;;;;6.95;3.58;;;2.30;42.20;;;;;;5113217;28;20023;-21
2022/03/22 03:56:55;;;;;;;14.93;7.78;;;2.30;41.80;;;;;;5113913;28;20483;-20
2022/03/22 03:59:21;;;;;;;10.23;5.50;;;2.20;41.80;;;;;;5114234;28;20035;-20
2022/03/22 04:01:47;;;;;;;13.48;7.38;;;2.20;42.30;;;;;;5113937;28;20028;-20
2022/03/22 04:04:13;;;;;;;15.43;8.68;;;2.20;42.70;;;;;;5112649;28;20508;-20
2022/03/22 04:06:39;;;;;;;18.75;9.77;;;2.20;43.50;;;;;;5113790;28;20069;-21
2022/03/22 04:09:05;;;;;;;11.70;6.88;;;2.10;43.20;;;;;;5114098;28;20028;-20
2022/03/22 04:11:31;;;;;;;15.63;8.95;;;2.20;43.30;;;;;;5113759;28;20080;-20
2022/03/22 04:13:57;;;;;;;14.73;7.57;;;2.10;44.00;;;;;;5114359;28;20023;-20
2022/03/22 04:16:23;;;;;;;16.38;9.50;;;2.10;43.10;;;;;;5113159;28;20035;-21
2022/03/22 04:18:50;;;;;;;18.85;10.27;;;2.10;43.70;;;;;;5113955;28;20024;-20
2022/03/22 04:21:16;;;;;;;12.63;5.05;;;2.10;43.90;;;;;;5113641;28;20035;-20
2022/03/22 04:23:42;;;;;;;15.02;8.48;;;2.10;43.10;;;;;;5113810;28;20481;-20
2022/03/22 04:26:08;;;;;;;18.92;9.65;;;2.10;42.80;;;;;;5113873;28;20027;-20
2022/03/22 04:34:19;;;;;;;13.25;7.07;;;2.00;44.30;;;;;;5113991;28;20611;-21
2022/03/22 04:36:55;;;;;;;12.30;7.32;;;1.90;44.50;;;;;;5113797;28;20031;-20
2022/03/22 04:39:30;;;;;;;13.05;7.55;;;1.90;43.80;;;;;;5113499;28;20499;-20
2022/03/22 04:41:58;;;;;;;11.18;5.55;;;1.90;43.20;;;;;;5113766;28;20027;-20
2022/03/22 04:44:26;;;;;;;15.60;7.35;;;1.90;43.70;;;;;;5113306;28;20031;-20
2022/03/22 04:46:52;;;;;;;14.48;8.25;;;1.90;43.90;;;;;;5113310;28;20024;-21
2022/03/22 04:49:18;;;;;;;12.40;6.82;;;1.80;44.30;;;;;;5113623;28;20012;-20
2022/03/22 04:57:14;;;;;;;15.73;9.65;;;1.70;44.70;;;;;;5113676;28;20112;-20
2022/03/22 04:59:41;;;;;;;18.67;9.45;;;1.60;45.90;;;;;;5113558;28;20429;-20
2022/03/22 05:02:07;;;;;;;15.48;8.90;;;1.60;45.90;;;;;;5113045;28;20028;-20
2022/03/22 05:04:33;;;;;;;18.65;10.93;;;1.70;46.00;;;;;;5113062;28;20038;-21
2022/03/22 05:06:58;;;;;;;21.77;10.88;;;1.60;47.20;;;;;;5115283;28;20024;-20
2022/03/22 05:09:24;;;;;;;16.60;7.28;;;1.60;47.40;;;;;;5117473;28;20019;-20
2022/03/22 05:11:51;;;;;;;13.18;7.25;;;1.70;46.00;;;;;;5117191;28;20086;-20
2022/03/22 05:14:17;;;;;;;14.77;7.15;;;1.70;46.10;;;;;;5116989;28;20030;-21
2022/03/22 05:16:45;;;;;;;11.65;6.88;;;1.70;45.80;;;;;;5116533;28;20056;-20
2022/03/22 05:19:13;;;;;;;13.55;7.63;;;1.70;45.80;;;;;;5117058;28;20155;-20
2022/03/22 05:21:40;;;;;;;18.27;9.57;;;1.70;45.40;;;;;;5116930;28;20064;-20
2022/03/22 05:24:07;;;;;;;8.98;4.85;;;1.70;45.40;;;;;;5116869;28;20044;-20
2022/03/22 05:26:34;;;;;;;11.38;5.00;;;1.70;44.90;;;;;;5116784;28;20031;-20
2022/03/22 05:29:02;;;;;;;8.65;4.43;;;1.70;44.70;;;;;;5116981;28;20379;-20
2022/03/22 05:31:28;;;;;;;9.45;5.13;;;1.70;45.10;;;;;;5116651;28;20034;-21
2022/03/22 05:33:54;;;;;;;11.30;5.28;;;1.80;44.60;;;;;;5117221;28;20015;-20
2022/03/22 05:36:20;;;;;;;12.48;6.38;;;1.80;44.30;;;;;;5116986;28;20031;-21
2022/03/22 05:38:46;;;;;;;12.52;6.40;;;1.80;44.20;;;;;;5117309;28;20163;-20
2022/03/22 05:41:12;;;;;;;13.50;6.35;;;1.90;44.00;;;;;;5116541;28;20028;-20
2022/03/22 05:43:38;;;;;;;14.10;8.00;;;1.90;43.70;;;;;;5116378;28;20042;-20
2022/03/22 05:46:05;;;;;;;16.92;8.43;;;1.90;44.10;;;;;;5116623;28;20110;-20
2022/03/22 05:48:31;;;;;;;18.58;9.40;;;2.00;44.90;;;;;;5114945;28;20081;-21
2022/03/22 05:50:57;;;;;;;19.17;9.82;;;2.10;45.50;;;;;;5115346;28;20039;-20
2022/03/22 05:53:23;;;;;;;20.30;10.13;;;2.20;45.30;;;;;;5116642;28;20020;-20
2022/03/22 05:55:49;;;;;;;17.77;9.75;;;2.30;45.90;;;;;;5116268;28;20543;-20
2022/03/22 05:58:15;;;;;;;19.95;9.55;;;2.40;46.30;;;;;;5116156;28;20069;-21
2022/03/22 06:00:42;;;;;;;22.10;9.80;;;2.50;45.90;;;;;;5116785;28;20034;-20
2022/03/22 06:03:08;;;;;;;15.93;7.82;;;2.60;45.30;;;;;;5116000;28;20513;-20
2022/03/22 06:05:34;;;;;;;11.85;6.55;;;2.70;45.80;;;;;;5116123;28;20028;-20
2022/03/22 06:08:00;;;;;;;7.47;4.15;;;2.90;44.70;;;;;;5114805;28;20031;-20
2022/03/22 06:10:28;;;;;;;11.55;5.65;;;2.90;44.00;;;;;;5115777;28;20104;-20
2022/03/22 06:12:56;;;;;;;10.65;5.45;;;3.10;43.50;;;;;;5115946;28;20028;-20
2022/03/22 06:15:25;;;;;;;18.23;7.47;;;3.30;43.80;;;;;;5115914;27;20028;-20
2022/03/22 06:17:56;;;;;;;9.40;4.80;;;3.40;43.40;;;;;;5114913;28;20060;-20
2022/03/22 06:20:28;;;;;;;13.80;5.80;;;3.60;43.60;;;;;;5115895;28;20038;-20
2022/03/22 06:22:56;;;;;;;12.98;6.50;;;3.80;43.10;;;;;;5116035;28;20111;-20
2022/03/22 06:25:22;;;;;;;30.05;15.18;;;3.90;43.90;;;;;;5116022;28;20104;-20
2022/03/22 06:27:51;;;;;;;13.82;6.55;;;4.10;44.80;;;;;;5115987;28;20018;-20
2022/03/22 06:30:18;;;;;;;13.32;7.43;;;4.30;43.60;;;;;;5115416;28;20027;-21
2022/03/22 06:32:59;;;;;;;10.75;5.50;;;4.50;42.80;;;;;;5116001;27;20028;-21
2022/03/22 06:35:29;;;;;;;10.48;4.95;;;4.70;42.30;;;;;;5115489;28;20024;-20
2022/03/22 06:37:57;;;;;;;11.32;6.47;;;4.80;42.30;;;;;;5115529;28;20463;-20
2022/03/22 06:40:27;;;;;;;12.70;6.30;;;5.00;42.60;;;;;;5115541;28;20024;-20
2022/03/22 06:42:55;;;;;;;10.70;6.03;;;5.10;42.90;;;;;;5115282;28;20483;-20
2022/03/22 06:45:21;;;;;;;15.07;6.38;;;5.30;41.90;;;;;;5115230;28;20127;-20
2022/03/22 06:47:48;;;;;;;12.15;7.25;;;5.50;42.70;;;;;;5115269;28;20020;-20
2022/03/22 06:50:16;;;;;;;17.88;8.82;;;5.60;41.90;;;;;;5114923;28;20532;-20
2022/03/22 06:52:43;;;;;;;9.82;5.53;;;5.80;41.90;;;;;;5115196;28;20076;-20
2022/03/22 06:55:10;;;;;;;10.73;5.80;;;5.90;41.80;;;;;;5115083;28;20024;-20
2022/03/22 06:57:37;;;;;;;8.98;4.90;;;6.20;41.90;;;;;;5114971;28;20026;-20
2022/03/22 07:00:10;;;;;;;11.05;5.50;;;6.30;41.50;;;;;;5115242;28;20040;-20
2022/03/22 07:02:39;;;;;;;9.70;4.38;;;6.50;41.70;;;;;;5115340;28;20028;-20
2022/03/22 07:05:08;;;;;;;11.70;6.65;;;6.70;41.30;;;;;;5114815;28;20132;-20
2022/03/22 07:07:35;;;;;;;11.63;7.60;;;6.90;41.30;;;;;;5114624;28;20506;-20
2022/03/22 07:10:02;;;;;;;9.20;4.80;;;7.10;41.60;;;;;;5115059;28;20110;-20
2022/03/22 07:12:28;;;;;;;13.45;8.02;;;7.30;41.00;;;;;;5114811;28;20027;-19
2022/03/22 07:14:55;;;;;;;13.05;7.30;;;7.50;41.10;;;;;;5114724;28;20035;-20
2022/03/22 07:17:21;;;;;;;12.20;6.50;;;7.70;40.90;;;;;;5114370;28;20135;-20
2022/03/22 07:19:47;;;;;;;11.38;5.55;;;7.90;40.70;;;;;;5114753;28;20054;-20
2022/03/22 07:22:14;;;;;;;11.15;5.93;;;8.00;40.60;;;;;;5114447;28;20031;-20
2022/03/22 07:24:40;;;;;;;10.80;6.07;;;8.20;40.70;;;;;;5114418;28;20038;-20
2022/03/22 07:27:07;;;;;;;17.27;8.82;;;8.40;40.40;;;;;;5113457;28;20487;-20
2022/03/22 07:29:33;;;;;;;13.07;6.28;;;8.50;40.40;;;;;;5113847;28;20038;-20
2022/03/22 07:31:59;;;;;;;14.23;8.05;;;8.70;40.30;;;;;;5114312;28;20546;-20
2022/03/22 07:34:26;;;;;;;14.95;8.73;;;8.90;40.10;;;;;;5114178;28;20019;-20
2022/03/22 07:36:53;;;;;;;9.52;5.28;;;9.00;40.10;;;;;;5114491;28;20369;-20
2022/03/22 07:39:21;;;;;;;12.13;6.38;;;9.20;39.90;;;;;;5114210;28;20107;-20
2022/03/22 07:41:47;;;;;;;15.20;8.57;;;9.40;39.80;;;;;;5114551;28;20048;-20
2022/03/22 07:44:13;;;;;;;12.07;6.45;;;9.50;40.00;;;;;;5114137;28;20082;-19
2022/03/22 07:46:40;;;;;;;14.60;7.53;;;9.80;39.60;;;;;;5112838;28;20035;-19
2022/03/22 07:54:35;;;;;;;13.45;8.82;;;10.40;39.00;;;;;;5113885;28;20060;-20
2022/03/22 07:57:03;;;;;;;9.68;6.30;;;10.70;38.90;;;;;;5113988;28;20038;-19
2022/03/22 07:59:29;;;;;;;14.50;8.55;;;10.90;38.50;;;;;;5114252;28;20077;-19
2022/03/22 08:01:56;;;;;;;14.80;9.48;;;11.10;38.20;;;;;;5113797;28;20026;-19
2022/03/22 08:04:22;;;;;;;14.65;7.78;;;11.40;37.60;;;;;;5113930;28;20058;-20
2022/03/22 08:06:48;;;;;;;12.10;7.13;;;11.60;36.90;;;;;;5114438;28;20388;-19
2022/03/22 08:09:13;;;;;;;13.10;7.95;;;11.80;36.90;;;;;;5112624;28;20027;-19
2022/03/22 08:11:40;;;;;;;15.43;9.05;;;12.00;36.00;;;;;;5114833;28;20028;-19
2022/03/22 08:14:06;;;;;;;15.10;8.52;;;12.30;35.90;;;;;;5113672;28;20019;-19
2022/03/22 08:16:32;;;;;;;14.07;8.98;;;12.50;34.40;;;;;;5113247;28;20043;-20
2022/03/22 08:18:58;;;;;;;13.82;8.00;;;12.70;34.30;;;;;;5114046;28;20028;-19
2022/03/22 08:21:24;;;;;;;13.98;7.97;;;12.90;34.10;;;;;;5114383;28;20027;-19
2022/03/22 08:23:50;;;;;;;17.02;9.27;;;13.00;33.40;;;;;;5113466;28;20497;-20
2022/03/22 08:26:16;;;;;;;16.73;9.85;;;13.20;33.30;;;;;;5113720;28;20042;-20
2022/03/22 08:28:45;;;;;;;16.77;8.85;;;13.30;33.20;;;;;;5113450;28;20410;-19
2022/03/22 08:31:13;;;;;;;15.15;9.05;;;13.50;32.50;;;;;;5113711;28;20035;-19
2022/03/22 08:33:39;;;;;;;13.98;8.98;;;13.60;32.50;;;;;;5113580;28;20028;-20
2022/03/22 08:36:05;;;;;;;14.68;9.15;;;13.80;32.20;;;;;;5113606;28;20031;-19
2022/03/22 08:38:31;;;;;;;13.75;8.32;;;13.90;31.60;;;;;;5113315;28;20491;-20
2022/03/22 08:40:57;;;;;;;13.25;8.40;;;14.10;31.40;;;;;;5115234;28;20076;-19
2022/03/22 08:43:27;;;;;;;13.48;8.65;;;14.30;31.40;;;;;;5117681;27;20047;-20
2022/03/22 08:45:54;;;;;;;12.85;8.60;;;14.40;30.80;;;;;;5117852;28;20500;-19
2022/03/22 08:48:21;;;;;;;14.68;8.15;;;14.60;30.50;;;;;;5117616;27;20027;-20
2022/03/22 08:50:49;;;;;;;14.63;8.70;;;14.80;30.20;;;;;;5117890;28;20106;-19
2022/03/22 08:53:19;;;;;;;15.40;9.15;;;14.90;30.30;;;;;;5117475;28;20414;-19
2022/03/22 08:55:47;;;;;;;13.48;8.65;;;15.10;29.70;;;;;;5117755;28;20019;-19
2022/03/22 08:58:14;;;;;;;12.93;7.75;;;15.30;29.70;;;;;;5117108;28;20062;-20
2022/03/22 09:00:40;;;;;;;12.50;8.18;;;15.50;29.40;;;;;;5116024;28;20019;-20
2022/03/22 09:03:08;;;;;;;14.65;9.45;;;15.80;28.70;;;;;;5117414;28;20031;-19
2022/03/22 09:08:19;;;;;;;14.77;8.65;;;16.10;28.40;;;;;;5117302;28;20039;-19
2022/03/22 09:10:46;;;;;;;12.40;7.28;;;16.40;28.40;;;;;;5117443;28;20031;-20
2022/03/22 09:13:13;;;;;;;12.27;7.90;;;16.50;28.50;;;;;;5117075;28;20429;-19
2022/03/22 09:15:40;;;;;;;14.80;8.75;;;16.80;28.20;;;;;;5117843;28;20024;-20
2022/03/22 09:18:13;;;;;;;12.95;8.55;;;16.90;27.50;;;;;;5116937;28;20036;-19
2022/03/22 09:20:40;;;;;;;14.35;8.48;;;17.10;27.20;;;;;;5117345;28;20070;-19
2022/03/22 09:23:08;;;;;;;13.88;8.93;;;17.30;27.20;;;;;;5116734;28;20028;-20
2022/03/22 09:25:35;;;;;;;13.35;9.02;;;17.40;26.90;;;;;;5116820;28;20510;-19
2022/03/22 09:28:01;;;;;;;15.40;9.50;;;17.60;26.90;;;;;;5117060;28;20176;-20
2022/03/22 09:30:28;;;;;;;13.98;9.20;;;17.70;25.30;;;;;;5116776;28;20036;-19
2022/03/22 09:32:57;;;;;;;16.00;8.57;;;17.90;26.30;;;;;;5116925;28;20027;-19
2022/03/22 09:35:24;;;;;;;14.05;8.57;;;18.00;26.50;;;;;;5116710;28;20024;-20
2022/03/22 09:37:51;;;;;;;15.25;9.35;;;18.20;26.20;;;;;;5116537;27;20020;-19
2022/03/22 09:40:18;;;;;;;17.13;9.98;;;18.40;25.80;;;;;;5116402;28;20110;-19
2022/03/22 09:42:46;;;;;;;14.30;9.57;;;18.50;25.80;;;;;;5116464;28;20436;-19
2022/03/22 09:45:24;;;;;;;14.60;9.60;;;18.70;25.50;;;;;;5116490;28;20032;-20
2022/03/22 09:47:51;;;;;;;14.70;9.90;;;18.70;25.00;;;;;;5116467;28;20486;-20
2022/03/22 09:50:18;;;;;;;15.02;10.05;;;18.90;25.30;;;;;;5116479;28;20077;-20
2022/03/22 09:52:44;;;;;;;13.68;9.48;;;18.90;25.30;;;;;;5115443;28;20012;-20
2022/03/22 09:55:12;;;;;;;12.30;8.43;;;18.90;24.70;;;;;;5116428;27;20055;-20
2022/03/22 09:57:39;;;;;;;14.70;8.98;;;19.00;25.10;;;;;;5116856;28;20514;-20
2022/03/22 10:00:12;;;;;;;16.77;10.05;;;19.20;25.00;;;;;;5116369;28;20019;-20
2022/03/22 10:02:38;;;;;;;14.57;9.17;;;19.30;24.80;;;;;;5116209;28;20058;-19
2022/03/22 10:05:05;;;;;;;13.48;8.82;;;19.40;24.80;;;;;;5116120;28;20261;-20
2022/03/22 10:07:31;;;;;;;12.02;8.35;;;19.60;24.80;;;;;;5116378;28;20020;-20
2022/03/22 10:10:00;;;;;;;14.68;9.50;;;19.90;24.90;;;;;;5116508;28;20051;-19
2022/03/22 10:12:37;;;;;;;14.63;9.35;;;20.00;24.50;;;;;;5115784;27;20479;-20
2022/03/22 10:15:11;;;;;;;14.40;9.25;;;20.20;24.40;;;;;;5115896;27;20020;-20
2022/03/22 10:17:38;;;;;;;14.70;9.43;;;20.40;24.40;;;;;;5115364;28;20054;-19
2022/03/22 10:20:06;;;;;;;11.88;8.38;;;20.50;24.40;;;;;;5115668;27;20118;-19
2022/03/22 10:22:34;;;;;;;14.77;9.68;;;20.70;24.40;;;;;;5115663;28;20019;-19
2022/03/22 10:25:04;;;;;;;13.43;9.43;;;20.80;23.60;;;;;;5115606;28;20035;-20
2022/03/22 10:27:33;;;;;;;13.45;9.15;;;20.90;23.70;;;;;;5115960;28;20015;-20
2022/03/22 10:30:08;;;;;;;14.23;9.27;;;21.00;23.40;;;;;;5115598;28;20027;-19
2022/03/22 10:32:37;;;;;;;14.68;10.30;;;21.20;23.00;;;;;;5115559;28;20030;-20
2022/03/22 10:35:14;;;;;;;14.38;9.18;;;21.20;23.30;;;;;;5115748;28;20051;-19
2022/03/22 10:37:45;;;;;;;13.38;9.63;;;21.30;23.10;;;;;;5115796;28;20106;-19
2022/03/22 10:40:26;;;;;;;15.90;10.70;;;21.40;22.70;;;;;;5115759;28;20024;-19
2022/03/22 10:42:57;;;;;;;12.88;9.27;;;21.50;21.00;;;;;;5115224;28;20031;-20
2022/03/22 10:45:23;;;;;;;13.07;8.23;;;21.60;22.70;;;;;;5115879;28;20027;-19
2022/03/22 10:47:49;;;;;;;14.85;9.88;;;21.90;23.20;;;;;;5115149;28;20510;-20
2022/03/22 10:50:15;;;;;;;12.48;8.35;;;22.00;22.60;;;;;;5113905;28;20055;-21
2022/03/22 10:52:50;;;;;;;15.80;9.93;;;22.20;22.70;;;;;;5115084;28;20020;-19
2022/03/22 10:55:19;;;;;;;13.77;9.45;;;22.40;22.00;;;;;;5115091;28;20020;-20
2022/03/22 10:57:52;;;;;;;13.27;9.40;;;22.40;22.30;;;;;;5115120;28;20035;-20
2022/03/22 11:00:18;;;;;;;13.02;8.85;;;22.50;22.50;;;;;;5115233;28;20027;-19
2022/03/22 11:02:49;;;;;;;17.35;9.30;;;22.70;22.30;;;;;;5115201;28;20042;-20
2022/03/22 11:05:19;;;;;;;14.05;10.13;;;22.80;22.40;;;;;;5115220;27;20498;-19
2022/03/22 11:07:48;;;;;;;11.65;8.55;;;22.90;22.50;;;;;;5115213;28;20020;-20
2022/03/22 11:10:30;;;;;;;11.98;8.13;;;23.20;22.50;;;;;;5114634;28;20024;-21
2022/03/22 11:13:00;;;;;;;15.00;10.05;;;23.40;22.20;;;;;;5114884;28;20058;-20
2022/03/22 11:15:29;;;;;;;12.73;8.90;;;23.60;22.00;;;;;;5114520;28;20028;-19
2022/03/22 11:17:56;;;;;;;12.98;8.75;;;23.70;22.00;;;;;;5114640;28;20052;-20
2022/03/22 11:20:27;;;;;;;14.18;8.85;;;23.90;21.90;;;;;;5114717;28;20031;-20
2022/03/22 11:22:56;;;;;;;13.73;8.77;;;24.10;21.90;;;;;;5114531;28;20031;-20
2022/03/22 11:25:34;;;;;;;15.82;9.65;;;24.20;21.60;;;;;;5114575;27;20039;-20
2022/03/22 11:28:12;;;;;;;12.93;8.73;;;24.30;21.30;;;;;;5114768;28;20012;-19
2022/03/22 11:30:39;;;;;;;13.52;9.75;;;24.50;20.50;;;;;;5114330;28;20057;-19
2022/03/22 11:36:01;;;;;;;11.18;8.35;;;24.90;21.40;;;;;;5114726;28;20119;-19
2022/03/22 11:38:37;;;;;;;15.90;9.70;;;25.20;20.90;;;;;;5114113;28;20047;-19
2022/03/22 11:43:48;;;;;;;15.73;9.95;;;25.40;20.30;;;;;;5114475;28;20525;-20
2022/03/22 11:46:14;;;;;;;14.07;9.45;;;25.50;20.40;;;;;;5113900;28;20040;-21
2022/03/22 11:48:40;;;;;;;13.02;8.88;;;25.70;20.70;;;;;;5113294;28;20020;-20
2022/03/22 11:51:08;;;;;;;15.00;9.75;;;25.90;20.30;;;;;;5114366;28;20403;-20
2022/03/22 11:53:46;;;;;;;14.13;9.93;;;26.00;20.30;;;;;;5114129;28;20546;-19
2022/03/22 11:56:12;;;;;;;13.90;9.45;;;26.10;19.40;;;;;;5114235;28;20027;-19
2022/03/22 11:58:49;;;;;;;15.07;9.93;;;26.20;20.30;;;;;;5113922;28;20088;-19
2022/03/22 12:01:16;;;;;;;12.32;9.13;;;26.10;19.40;;;;;;5113897;28;20028;-20
2022/03/22 12:03:51;;;;;;;13.77;9.77;;;26.20;19.90;;;;;;5114151;28;20028;-19
2022/03/22 12:06:17;;;;;;;12.40;9.90;;;26.20;19.90;;;;;;5113990;28;20051;-20
2022/03/22 12:08:43;;;;;;;12.88;8.73;;;26.20;19.90;;;;;;5113757;28;20035;-19
2022/03/22 12:11:15;;;;;;;12.23;8.32;;;26.40;20.00;;;;;;5114033;28;20076;-19
2022/03/22 12:13:46;;;;;;;12.82;9.07;;;26.40;20.10;;;;;;5113640;28;20023;-19
2022/03/22 12:16:12;;;;;;;13.88;9.88;;;26.60;19.70;;;;;;5113490;28;20080;-20
2022/03/22 12:18:41;;;;;;;13.73;8.55;;;26.60;19.80;;;;;;5113342;28;20047;-19
2022/03/22 12:21:18;;;;;;;10.88;7.68;;;26.80;19.80;;;;;;5113421;28;20393;-19
2022/03/22 12:23:46;;;;;;;13.75;9.35;;;27.00;19.00;;;;;;5113409;28;20020;-19
2022/03/22 12:26:12;;;;;;;13.32;9.07;;;27.20;19.70;;;;;;5113513;28;20032;-19
2022/03/22 12:28:51;;;;;;;14.00;9.13;;;27.40;19.70;;;;;;5113184;28;20031;-19
2022/03/22 12:31:21;;;;;;;11.40;9.10;;;27.60;18.30;;;;;;5113422;28;20649;-19
2022/03/22 12:33:57;;;;;;;12.57;9.82;;;27.60;19.10;;;;;;5113475;28;20027;-19
2022/03/22 12:36:24;;;;;;;11.95;8.85;;;27.60;18.40;;;;;;5113541;28;20094;-20
2022/03/22 12:38:50;;;;;;;14.07;9.10;;;27.70;19.20;;;;;;5113316;28;20039;-19
2022/03/22 12:41:16;;;;;;;13.13;9.27;;;27.70;19.20;;;;;;5113649;28;20053;-19
2022/03/22 12:43:45;;;;;;;12.50;8.80;;;27.80;19.60;;;;;;5113175;28;20383;-20
2022/03/22 12:46:13;;;;;;;12.10;8.45;;;27.90;19.30;;;;;;5113787;28;20115;-19
2022/03/22 12:48:41;;;;;;;11.55;9.05;;;28.10;19.10;;;;;;5113674;28;20560;-19
2022/03/22 12:51:11;;;;;;;11.65;8.27;;;28.30;18.90;;;;;;5113309;28;20043;-19
2022/03/22 12:53:37;;;;;;;9.52;6.85;;;28.50;18.80;;;;;;5113548;28;20032;-19
2022/03/22 12:56:16;;;;;;;11.25;8.45;;;28.70;19.00;;;;;;5113602;28;20020;-19
2022/03/22 12:58:42;;;;;;;9.85;7.85;;;29.00;18.20;;;;;;5112070;28;20024;-19
2022/03/22 13:01:08;;;;;;;12.00;8.50;;;29.30;18.80;;;;;;5113384;28;20415;-20
2022/03/22 13:03:36;;;;;;;12.13;8.95;;;29.50;18.50;;;;;;5113495;28;20542;-19
2022/03/22 13:06:02;;;;;;;12.57;8.70;;;29.60;18.20;;;;;;5113525;28;20039;-19
2022/03/22 13:11:26;;;;;;;10.88;8.45;;;29.70;18.10;;;;;;5113258;28;20077;-19
2022/03/22 13:11:28;;;;;;;10.95;9.05;;;29.70;18.10;;;;;;5113153;28;20080;-19
2022/03/22 13:16:56;;;;;;;13.02;9.02;;;29.70;17.90;;;;;;5112913;28;20035;-19
2022/03/22 13:19:22;;;;;;;12.45;8.40;;;29.70;17.70;;;;;;5113247;28;20034;-19
2022/03/22 13:21:48;;;;;;;15.52;9.00;;;29.70;18.00;;;;;;5113065;28;20023;-19
2022/03/22 13:24:24;;;;;;;13.05;9.30;;;29.80;17.70;;;;;;5113051;28;20023;-21